Time;durP1;ratioP1;P1;durP2;ratioP2;P2;SDS_P1;SDS_P2;PMS_P1;PMS_P2;Temp;Humidity;BMP_temperature;BMP_pressure;BME280_temperature;BME280_humidity;BME280_pressure;Samples;Min_cycle;Max_cycle;Signal;HPM_P1;HPM_P2
2022/03/17 00:00:10;;;;;;;18.10;6.22;;;1.90;98.30;;;;;;4900120;29;20048;-75
2022/03/17 00:02:39;;;;;;;18.90;6.40;;;1.90;98.30;;;;;;4914532;29;20120;-74
2022/03/17 00:05:10;;;;;;;13.65;6.15;;;1.80;98.60;;;;;;4917038;29;20521;-75
2022/03/17 00:07:38;;;;;;;10.13;5.65;;;1.80;98.90;;;;;;4915473;29;20052;-75
2022/03/17 00:10:07;;;;;;;17.02;6.43;;;1.80;99.60;;;;;;4914580;29;20058;-75
2022/03/17 00:12:35;;;;;;;17.52;6.20;;;1.70;99.90;;;;;;4915446;29;20539;-75
2022/03/17 00:15:04;;;;;;;13.43;5.78;;;1.70;99.90;;;;;;4912327;29;20131;-74
2022/03/17 00:17:32;;;;;;;16.85;6.53;;;1.70;99.90;;;;;;4912117;29;20056;-74
2022/03/17 00:19:59;;;;;;;15.80;6.10;;;1.60;99.90;;;;;;4911393;29;20108;-74
2022/03/17 00:22:30;;;;;;;20.63;6.10;;;1.60;99.90;;;;;;4900592;29;20163;-75
2022/03/17 00:24:58;;;;;;;15.05;6.20;;;1.60;99.90;;;;;;4898775;29;20059;-76
2022/03/17 00:27:25;;;;;;;14.27;6.47;;;1.50;99.90;;;;;;4904722;29;20282;-76
2022/03/17 00:29:54;;;;;;;15.07;6.00;;;1.50;99.90;;;;;;4911909;29;20052;-76
2022/03/17 00:32:23;;;;;;;15.02;6.05;;;1.40;99.90;;;;;;4910268;29;20509;-75
2022/03/17 00:37:38;;;;;;;24.10;6.60;;;1.40;99.90;;;;;;4901332;29;20056;-75
2022/03/17 00:40:07;;;;;;;16.40;6.78;;;1.40;99.90;;;;;;4912620;29;20095;-76
2022/03/17 00:42:35;;;;;;;25.23;6.72;;;1.30;99.90;;;;;;4896167;29;20530;-74
2022/03/17 00:45:03;;;;;;;17.15;6.88;;;1.20;99.90;;;;;;4895894;29;20052;-76
2022/03/17 00:47:31;;;;;;;22.70;6.10;;;1.10;99.90;;;;;;4906864;29;20052;-74
2022/03/17 00:49:58;;;;;;;12.85;5.55;;;1.10;99.90;;;;;;4897358;29;20502;-74
2022/03/17 00:52:26;;;;;;;13.77;6.95;;;1.10;99.90;;;;;;4880422;29;20060;-74
2022/03/17 00:54:54;;;;;;;13.98;6.53;;;1.00;99.90;;;;;;4896133;29;20347;-75
2022/03/17 00:57:22;;;;;;;12.90;5.85;;;1.00;99.90;;;;;;4915788;29;20063;-69
2022/03/17 00:59:49;;;;;;;12.75;5.95;;;1.00;99.90;;;;;;4915864;29;20429;-68
2022/03/17 01:02:17;;;;;;;11.38;6.10;;;1.00;99.90;;;;;;4914497;29;20111;-70
2022/03/17 01:04:45;;;;;;;17.40;6.72;;;1.00;99.90;;;;;;4892538;29;20052;-69
2022/03/17 01:07:12;;;;;;;14.40;6.50;;;0.90;99.90;;;;;;4912170;29;20077;-70
2022/03/17 01:09:39;;;;;;;15.27;7.03;;;0.90;99.90;;;;;;4880038;29;20063;-68
2022/03/17 01:12:10;;;;;;;22.83;7.80;;;0.80;99.90;;;;;;4895511;29;20045;-69
2022/03/17 01:14:37;;;;;;;14.32;6.82;;;0.80;99.90;;;;;;4906515;29;20048;-69
2022/03/17 01:17:05;;;;;;;13.57;6.03;;;0.80;99.90;;;;;;4901199;29;20049;-68
2022/03/17 01:19:32;;;;;;;16.98;5.78;;;0.80;99.90;;;;;;4902976;29;20525;-68
2022/03/17 01:21:59;;;;;;;18.27;6.80;;;0.80;99.90;;;;;;4928299;29;20063;-67
2022/03/17 01:24:27;;;;;;;18.65;6.63;;;0.80;99.90;;;;;;4914913;29;20067;-69
2022/03/17 01:26:54;;;;;;;9.95;6.15;;;0.80;99.90;;;;;;4915881;29;20052;-69
2022/03/17 01:29:23;;;;;;;15.57;7.00;;;0.80;99.90;;;;;;4914216;29;20066;-70
2022/03/17 01:31:51;;;;;;;24.73;7.43;;;0.70;99.90;;;;;;4913343;29;20096;-69
2022/03/17 01:34:20;;;;;;;14.90;6.68;;;0.70;99.90;;;;;;4913494;29;20052;-69
2022/03/17 01:36:47;;;;;;;20.50;6.88;;;0.60;99.90;;;;;;4905120;29;20139;-70
2022/03/17 01:39:15;;;;;;;12.43;6.55;;;0.60;99.90;;;;;;4896564;29;20052;-70
2022/03/17 01:41:42;;;;;;;14.80;6.88;;;0.60;99.90;;;;;;4907621;29;20107;-69
2022/03/17 01:44:10;;;;;;;15.10;6.32;;;0.60;99.90;;;;;;4914256;29;20048;-69
2022/03/17 01:49:20;;;;;;;11.38;5.70;;;0.50;99.90;;;;;;4913857;29;20059;-69
2022/03/17 01:51:49;;;;;;;10.90;6.15;;;0.40;99.90;;;;;;4915014;29;20524;-70
2022/03/17 01:54:19;;;;;;;16.02;6.30;;;0.40;99.90;;;;;;4915526;29;20090;-69
2022/03/17 01:56:47;;;;;;;13.43;5.15;;;0.40;99.90;;;;;;4914090;29;20052;-69
2022/03/17 01:59:15;;;;;;;12.65;6.13;;;0.40;99.90;;;;;;4906354;29;20052;-69
2022/03/17 02:01:46;;;;;;;9.95;4.72;;;0.30;99.90;;;;;;4910592;29;20084;-69
2022/03/17 02:04:13;;;;;;;14.98;4.70;;;0.30;99.90;;;;;;4910490;29;20057;-69
2022/03/17 02:06:42;;;;;;;11.10;5.35;;;0.30;99.90;;;;;;4910615;29;20062;-70
2022/03/17 02:09:09;;;;;;;10.38;5.85;;;0.30;99.90;;;;;;4894529;29;20528;-70
2022/03/17 02:14:23;;;;;;;13.20;5.60;;;0.20;99.90;;;;;;4894801;29;20060;-70
2022/03/17 02:16:53;;;;;;;11.23;5.22;;;0.20;99.90;;;;;;4905385;29;20044;-69
2022/03/17 02:19:21;;;;;;;18.25;5.85;;;0.20;99.90;;;;;;4901063;29;20059;-70
2022/03/17 02:21:49;;;;;;;12.85;5.40;;;0.30;99.90;;;;;;4884756;29;20167;-70
2022/03/17 02:27:05;;;;;;;12.25;5.40;;;0.20;99.90;;;;;;4912790;29;20481;-70
2022/03/17 02:29:32;;;;;;;19.80;7.70;;;0.20;99.90;;;;;;4901497;29;20104;-70
2022/03/17 02:31:59;;;;;;;13.02;6.05;;;0.20;99.90;;;;;;4918483;29;20527;-70
2022/03/17 02:34:27;;;;;;;18.23;6.47;;;0.20;99.90;;;;;;4918729;29;20524;-69
2022/03/17 02:36:55;;;;;;;12.77;6.63;;;0.10;99.90;;;;;;4918242;29;20580;-69
2022/03/17 02:39:24;;;;;;;11.20;6.13;;;0.10;99.90;;;;;;4917135;29;20072;-69
2022/03/17 02:41:51;;;;;;;11.65;5.68;;;0.10;99.90;;;;;;4918324;29;20048;-70
2022/03/17 02:44:18;;;;;;;12.43;5.75;;;0.10;99.90;;;;;;4917787;29;20055;-69
2022/03/17 02:46:46;;;;;;;15.25;5.70;;;0.10;99.90;;;;;;4917487;29;20084;-69
2022/03/17 02:49:15;;;;;;;19.23;6.10;;;0.10;99.90;;;;;;4918158;29;20056;-70
2022/03/17 02:51:43;;;;;;;12.57;6.05;;;0.10;99.90;;;;;;4917132;29;20051;-69
2022/03/17 02:54:10;;;;;;;16.63;6.65;;;0.10;99.90;;;;;;4917075;29;20398;-69
2022/03/17 02:56:39;;;;;;;10.63;6.18;;;0.10;99.90;;;;;;4916853;29;20040;-69
2022/03/17 02:59:07;;;;;;;14.13;5.55;;;0.00;99.90;;;;;;4918303;29;20056;-70
2022/03/17 03:01:34;;;;;;;16.42;5.38;;;0.00;99.90;;;;;;4916716;29;20055;-69
2022/03/17 03:04:01;;;;;;;12.15;6.25;;;0.00;99.90;;;;;;4931703;29;20400;-69
2022/03/17 03:06:28;;;;;;;18.60;6.03;;;-0.10;99.90;;;;;;4905141;29;20043;-69
2022/03/17 03:08:56;;;;;;;17.00;5.70;;;-0.10;99.90;;;;;;4905063;29;20147;-68
2022/03/17 03:11:23;;;;;;;15.45;6.68;;;-0.10;99.90;;;;;;4908355;29;20064;-70
2022/03/17 03:13:52;;;;;;;10.65;6.25;;;-0.10;99.90;;;;;;4915788;29;20052;-70
2022/03/17 03:16:19;;;;;;;12.05;5.82;;;-0.20;99.90;;;;;;4913598;29;20135;-70
2022/03/17 03:18:47;;;;;;;17.23;7.95;;;-0.20;99.90;;;;;;4882634;29;20048;-69
2022/03/17 03:21:14;;;;;;;19.98;5.82;;;-0.20;99.90;;;;;;4896731;29;20461;-69
2022/03/17 03:23:42;;;;;;;15.68;5.90;;;-0.20;99.90;;;;;;4916680;29;20451;-70
2022/03/17 03:26:09;;;;;;;12.13;5.57;;;-0.20;99.90;;;;;;4916463;29;20048;-69
2022/03/17 03:28:39;;;;;;;20.17;5.97;;;-0.20;99.90;;;;;;4916381;29;20051;-69
2022/03/17 03:31:08;;;;;;;14.57;6.25;;;-0.20;99.90;;;;;;4916652;29;20067;-70
2022/03/17 03:33:35;;;;;;;17.27;6.43;;;-0.20;99.90;;;;;;4917680;29;20052;-70
2022/03/17 03:38:48;;;;;;;17.00;6.22;;;-0.20;99.90;;;;;;4915177;29;20063;-70
2022/03/17 03:41:15;;;;;;;18.30;6.07;;;-0.20;99.90;;;;;;4911811;29;20037;-70
2022/03/17 03:43:42;;;;;;;13.10;5.60;;;-0.20;99.90;;;;;;4898159;29;20064;-70
2022/03/17 03:46:11;;;;;;;17.05;6.38;;;-0.20;99.90;;;;;;4900032;29;20136;-69
2022/03/17 03:48:39;;;;;;;21.58;5.80;;;-0.30;99.90;;;;;;4914433;29;20055;-69
2022/03/17 03:51:06;;;;;;;15.18;5.50;;;-0.30;99.90;;;;;;4921439;29;20529;-69
2022/03/17 03:56:15;;;;;;;16.58;5.88;;;-0.30;99.90;;;;;;4916015;29;20079;-69
2022/03/17 03:58:42;;;;;;;20.10;5.57;;;-0.30;99.90;;;;;;4915856;29;20083;-68
2022/03/17 04:01:11;;;;;;;17.98;6.53;;;-0.40;99.90;;;;;;4916818;29;20048;-69
2022/03/17 04:03:40;;;;;;;22.42;5.57;;;-0.40;99.90;;;;;;4899813;29;20425;-69
2022/03/17 04:06:07;;;;;;;21.38;6.25;;;-0.50;99.90;;;;;;4898802;29;20044;-69
2022/03/17 04:08:34;;;;;;;13.82;5.55;;;-0.50;99.90;;;;;;4899734;29;20044;-68
2022/03/17 04:11:02;;;;;;;18.08;5.88;;;-0.50;99.90;;;;;;4930740;29;20083;-75
2022/03/17 04:13:29;;;;;;;16.40;5.13;;;-0.50;99.90;;;;;;4912986;29;20044;-74
2022/03/17 04:15:57;;;;;;;18.50;5.90;;;-0.60;99.90;;;;;;4910315;29;20542;-74
2022/03/17 04:18:26;;;;;;;22.90;6.07;;;-0.60;99.90;;;;;;4909146;29;20509;-74
2022/03/17 04:20:53;;;;;;;15.77;5.35;;;-0.60;99.90;;;;;;4910598;29;20056;-69
2022/03/17 04:23:21;;;;;;;12.45;5.65;;;-0.60;99.90;;;;;;4922168;29;20052;-70
2022/03/17 04:25:48;;;;;;;27.05;7.22;;;-0.60;99.90;;;;;;4915055;29;20056;-68
2022/03/17 04:28:16;;;;;;;17.55;5.75;;;-0.70;99.90;;;;;;4914910;29;20051;-69
2022/03/17 04:30:43;;;;;;;14.27;5.95;;;-0.70;99.90;;;;;;4897734;29;20060;-69
2022/03/17 04:33:11;;;;;;;25.55;7.07;;;-0.70;99.90;;;;;;4907892;29;20044;-70
2022/03/17 04:35:39;;;;;;;17.73;6.57;;;-0.70;99.90;;;;;;4896993;29;20108;-69
2022/03/17 04:38:07;;;;;;;22.23;4.70;;;-0.70;99.90;;;;;;4909487;29;20052;-70
2022/03/17 04:40:35;;;;;;;28.25;6.25;;;-0.70;99.90;;;;;;4904326;29;20055;-69
2022/03/17 04:43:03;;;;;;;32.92;6.68;;;-0.70;99.90;;;;;;4911240;29;20387;-70
2022/03/17 04:45:38;;;;;;;17.42;5.13;;;-0.60;99.90;;;;;;4899804;29;20052;-70
2022/03/17 04:48:08;;;;;;;28.20;6.25;;;-0.60;99.90;;;;;;4916229;29;20060;-75
2022/03/17 04:50:35;;;;;;;22.35;6.75;;;-0.60;99.90;;;;;;4917687;29;20162;-74
2022/03/17 04:55:53;;;;;;;30.05;8.77;;;-0.60;99.90;;;;;;4918348;29;20055;-69
2022/03/17 04:58:21;;;;;;;19.40;6.28;;;-0.60;99.90;;;;;;4915161;29;20428;-69
2022/03/17 05:00:49;;;;;;;26.58;6.35;;;-0.50;99.90;;;;;;4913273;29;20464;-68
2022/03/17 05:03:16;;;;;;;20.02;5.93;;;-0.50;99.90;;;;;;4915596;29;20054;-72
2022/03/17 05:05:44;;;;;;;32.88;7.47;;;-0.60;99.90;;;;;;4915976;29;20060;-71
2022/03/17 05:08:13;;;;;;;27.55;6.38;;;-0.60;99.90;;;;;;4909402;29;20083;-70
2022/03/17 05:10:44;;;;;;;18.02;6.30;;;-0.60;99.90;;;;;;4912288;29;20532;-71
2022/03/17 05:13:13;;;;;;;23.55;5.90;;;-0.60;99.90;;;;;;4897392;29;20064;-69
2022/03/17 05:15:40;;;;;;;36.70;6.30;;;-0.60;99.90;;;;;;4898085;29;20394;-69
2022/03/17 05:18:09;;;;;;;14.27;5.28;;;-0.60;99.90;;;;;;4907447;29;20387;-69
2022/03/17 05:20:40;;;;;;;28.00;7.15;;;-0.50;99.90;;;;;;4912825;29;20126;-69
2022/03/17 05:23:10;;;;;;;32.28;6.95;;;-0.50;99.90;;;;;;4914851;29;20147;-69
2022/03/17 05:25:40;;;;;;;26.77;6.45;;;-0.50;99.90;;;;;;4914822;29;20167;-68
2022/03/17 05:28:09;;;;;;;15.27;6.20;;;-0.50;99.90;;;;;;4910439;29;20052;-71
2022/03/17 05:30:38;;;;;;;25.02;7.20;;;-0.50;99.90;;;;;;4911494;29;20143;-69
2022/03/17 05:33:06;;;;;;;24.02;7.15;;;-0.40;99.90;;;;;;4894571;29;20559;-69
2022/03/17 05:35:35;;;;;;;24.63;6.40;;;-0.40;99.90;;;;;;4910639;29;20111;-70
2022/03/17 05:38:03;;;;;;;26.08;7.00;;;-0.30;99.90;;;;;;4910223;29;20075;-70
2022/03/17 05:40:30;;;;;;;20.08;5.90;;;-0.30;99.90;;;;;;4910150;29;20052;-70
2022/03/17 05:43:02;;;;;;;22.27;7.32;;;-0.20;99.90;;;;;;4914993;29;20056;-70
2022/03/17 05:45:30;;;;;;;27.27;7.28;;;-0.20;99.90;;;;;;4914490;29;20062;-69
2022/03/17 05:48:00;;;;;;;35.10;7.95;;;-0.20;99.90;;;;;;4916108;29;20472;-69
2022/03/17 05:50:31;;;;;;;30.73;7.63;;;-0.10;99.90;;;;;;4913286;29;20104;-70
2022/03/17 05:52:59;;;;;;;23.50;7.55;;;0.00;99.90;;;;;;4913398;29;20059;-69
2022/03/17 05:55:28;;;;;;;24.30;7.63;;;0.00;99.90;;;;;;4914124;29;20462;-71
2022/03/17 05:57:57;;;;;;;32.50;6.85;;;0.10;99.90;;;;;;4914703;29;20099;-69
2022/03/17 06:00:29;;;;;;;35.15;6.85;;;0.10;99.90;;;;;;4913951;29;20071;-75
2022/03/17 06:02:58;;;;;;;28.45;7.38;;;0.20;99.90;;;;;;4915237;29;20056;-76
2022/03/17 06:05:26;;;;;;;29.08;6.93;;;0.20;99.90;;;;;;4915621;29;20501;-76
2022/03/17 06:07:55;;;;;;;26.73;8.10;;;0.30;99.90;;;;;;4914006;29;20138;-76
2022/03/17 06:10:26;;;;;;;22.50;6.68;;;0.30;99.90;;;;;;4898547;29;20051;-75
2022/03/17 06:12:55;;;;;;;34.10;7.75;;;0.40;99.90;;;;;;4913853;29;20059;-77
2022/03/17 06:15:24;;;;;;;40.22;9.50;;;0.50;99.90;;;;;;4914466;29;20086;-75
2022/03/17 06:17:55;;;;;;;30.95;7.57;;;0.50;99.90;;;;;;4914662;29;20051;-77
2022/03/17 06:20:26;;;;;;;31.30;8.00;;;0.50;99.90;;;;;;4913723;29;20048;-70
2022/03/17 06:22:56;;;;;;;31.17;8.18;;;0.60;99.90;;;;;;4906697;29;20541;-69
2022/03/17 06:25:26;;;;;;;38.97;6.90;;;0.70;99.90;;;;;;4907184;29;20056;-70
2022/03/17 06:27:54;;;;;;;44.70;8.07;;;0.70;99.90;;;;;;4913444;29;20493;-70
2022/03/17 06:30:24;;;;;;;28.95;6.97;;;0.70;99.90;;;;;;4902843;29;20052;-70
2022/03/17 06:32:54;;;;;;;30.27;7.82;;;0.80;99.90;;;;;;4912070;29;20052;-71
2022/03/17 06:35:24;;;;;;;45.25;9.52;;;0.90;99.90;;;;;;4914233;29;20428;-71
2022/03/17 06:37:53;;;;;;;35.80;9.20;;;0.90;99.90;;;;;;4920333;29;20131;-70
2022/03/17 06:40:23;;;;;;;53.17;9.55;;;1.00;99.90;;;;;;4921042;29;20457;-70
2022/03/17 06:42:51;;;;;;;30.08;8.07;;;1.10;99.90;;;;;;4919692;29;20048;-70
2022/03/17 06:45:20;;;;;;;36.42;7.32;;;1.20;99.90;;;;;;4920964;29;20051;-70
2022/03/17 06:47:47;;;;;;;26.05;7.47;;;1.20;99.90;;;;;;4913761;29;20416;-71
2022/03/17 06:50:18;;;;;;;39.05;7.55;;;1.30;99.90;;;;;;4916445;29;20047;-71
2022/03/17 06:52:46;;;;;;;27.90;7.25;;;1.40;99.90;;;;;;4906328;29;20051;-70
2022/03/17 06:55:14;;;;;;;32.97;8.05;;;1.50;99.90;;;;;;4922213;29;20250;-70
2022/03/17 06:57:42;;;;;;;29.38;7.60;;;1.70;99.90;;;;;;4923085;29;20051;-70
2022/03/17 07:00:13;;;;;;;33.08;9.02;;;1.90;99.00;;;;;;4921174;29;20473;-71
2022/03/17 07:02:41;;;;;;;36.55;8.73;;;2.50;98.90;;;;;;4916297;29;20156;-70
2022/03/17 07:05:10;;;;;;;37.83;9.48;;;3.80;92.80;;;;;;4934373;28;20508;-70
2022/03/17 07:07:39;;;;;;;42.60;8.45;;;5.20;87.00;;;;;;4909288;29;20048;-69
2022/03/17 07:10:08;;;;;;;26.75;6.68;;;6.40;77.30;;;;;;4913699;29;20155;-69
2022/03/17 07:12:36;;;;;;;36.17;8.77;;;7.30;68.80;;;;;;4913753;29;20075;-70
2022/03/17 07:15:04;;;;;;;39.08;9.23;;;8.00;65.60;;;;;;4915738;29;20052;-69
2022/03/17 07:17:39;;;;;;;32.97;8.18;;;8.70;61.70;;;;;;4909107;29;20583;-70
2022/03/17 07:20:09;;;;;;;32.72;8.35;;;9.00;58.80;;;;;;4911139;29;20048;-69
2022/03/17 07:22:39;;;;;;;35.75;9.32;;;9.60;59.30;;;;;;4917145;29;20060;-70
2022/03/17 07:25:09;;;;;;;40.60;10.07;;;10.10;57.00;;;;;;4923255;29;20052;-69
2022/03/17 07:27:40;;;;;;;38.78;9.57;;;10.50;55.30;;;;;;4914973;29;20055;-70
2022/03/17 07:30:10;;;;;;;29.80;9.95;;;10.90;55.10;;;;;;4915837;29;20063;-69
2022/03/17 07:32:38;;;;;;;34.67;9.68;;;11.40;53.10;;;;;;4911495;29;20514;-69
2022/03/17 07:35:07;;;;;;;35.13;8.93;;;11.80;51.90;;;;;;4896735;29;20048;-69
2022/03/17 07:37:34;;;;;;;40.10;10.77;;;12.20;51.00;;;;;;4897956;29;20063;-68
2022/03/17 07:40:04;;;;;;;33.40;11.20;;;12.50;50.60;;;;;;4900142;29;20070;-69
2022/03/17 07:42:32;;;;;;;47.10;10.43;;;13.00;49.80;;;;;;4889133;29;20112;-69
2022/03/17 07:45:18;;;;;;;50.60;10.73;;;13.30;48.80;;;;;;4897962;29;20056;-69
2022/03/17 07:48:06;;;;;;;37.83;10.07;;;13.10;48.10;;;;;;4897890;29;20044;-69
2022/03/17 07:50:34;;;;;;;41.65;11.07;;;12.60;49.00;;;;;;4896370;29;20056;-70
2022/03/17 07:53:01;;;;;;;42.25;9.20;;;12.50;49.00;;;;;;4915325;29;20374;-69
2022/03/17 07:55:30;;;;;;;38.83;9.55;;;12.30;48.30;;;;;;4916428;29;20052;-70
2022/03/17 07:57:57;;;;;;;37.85;8.65;;;12.30;49.10;;;;;;4898987;29;20044;-70
2022/03/17 08:00:26;;;;;;;32.72;9.32;;;12.50;47.90;;;;;;4924893;29;20146;-69
2022/03/17 08:02:54;;;;;;;39.65;9.30;;;12.80;48.20;;;;;;4935456;29;20071;-70
2022/03/17 08:05:21;;;;;;;29.40;8.20;;;13.10;47.50;;;;;;4932612;29;20066;-70
2022/03/17 08:07:49;;;;;;;41.03;8.80;;;13.50;47.60;;;;;;4923736;29;20056;-70
2022/03/17 08:10:16;;;;;;;35.78;8.48;;;13.70;46.90;;;;;;4920171;29;20060;-70
2022/03/17 08:12:46;;;;;;;38.50;8.88;;;14.00;46.00;;;;;;4915415;29;20052;-70
2022/03/17 08:15:14;;;;;;;30.75;7.90;;;14.30;45.60;;;;;;4921605;29;20062;-71
2022/03/17 08:17:41;;;;;;;31.52;8.45;;;14.60;44.10;;;;;;4919000;29;20492;-68
2022/03/17 08:20:10;;;;;;;29.02;7.18;;;14.90;44.00;;;;;;4915946;29;20108;-68
2022/03/17 08:22:40;;;;;;;30.35;8.75;;;15.20;43.50;;;;;;4913368;29;20062;-68
2022/03/17 08:25:09;;;;;;;27.35;7.07;;;15.90;43.10;;;;;;4915041;29;20052;-70
2022/03/17 08:27:38;;;;;;;32.50;8.73;;;16.70;41.50;;;;;;4915944;29;20048;-68
2022/03/17 08:30:08;;;;;;;41.30;9.32;;;17.00;40.80;;;;;;4913551;29;20107;-67
2022/03/17 08:32:36;;;;;;;26.52;8.60;;;17.10;39.90;;;;;;4913527;29;20048;-70
2022/03/17 08:35:05;;;;;;;32.35;8.65;;;16.70;40.10;;;;;;4913638;29;20048;-69
2022/03/17 08:37:32;;;;;;;26.67;8.05;;;16.90;40.80;;;;;;4914478;29;20571;-69
2022/03/17 08:39:59;;;;;;;28.90;8.02;;;17.10;39.90;;;;;;4914341;29;20055;-70
2022/03/17 08:42:27;;;;;;;34.30;8.07;;;17.30;40.10;;;;;;4915698;29;20052;-68
2022/03/17 08:44:54;;;;;;;21.85;6.60;;;17.90;39.70;;;;;;4930007;29;20053;-67
2022/03/17 08:50:10;;;;;;;20.95;7.88;;;18.40;38.70;;;;;;4915621;29;20072;-69
2022/03/17 08:52:37;;;;;;;22.27;7.38;;;18.90;37.70;;;;;;4915227;29;20056;-68
2022/03/17 08:55:05;;;;;;;21.48;6.60;;;18.70;37.30;;;;;;4914635;29;20051;-69
2022/03/17 08:57:33;;;;;;;23.35;6.72;;;18.70;38.10;;;;;;4915205;29;20131;-69
2022/03/17 09:00:06;;;;;;;25.35;6.63;;;19.20;37.30;;;;;;4915204;29;20059;-70
2022/03/17 09:02:35;;;;;;;23.00;7.03;;;19.60;36.50;;;;;;4915325;29;20047;-72
2022/03/17 09:05:02;;;;;;;22.35;6.85;;;19.70;36.00;;;;;;4914376;29;20055;-69
2022/03/17 09:07:30;;;;;;;23.63;7.22;;;19.70;35.90;;;;;;4913946;29;20092;-69
2022/03/17 09:09:58;;;;;;;22.58;6.53;;;19.40;36.30;;;;;;4913100;29;20048;-71
2022/03/17 09:12:26;;;;;;;29.13;6.50;;;19.50;36.80;;;;;;4921882;29;20040;-69
2022/03/17 09:14:54;;;;;;;21.00;6.25;;;20.00;35.80;;;;;;4938304;29;20044;-70
2022/03/17 09:17:22;;;;;;;20.30;6.47;;;20.40;35.40;;;;;;4922365;29;20428;-68
2022/03/17 09:19:51;;;;;;;21.35;6.60;;;20.90;34.60;;;;;;4917639;29;20059;-70
2022/03/17 09:22:18;;;;;;;19.45;6.25;;;21.20;34.80;;;;;;4913440;29;20059;-70
2022/03/17 09:24:48;;;;;;;15.35;5.10;;;21.10;34.00;;;;;;4929822;29;20428;-69
2022/03/17 09:27:16;;;;;;;16.02;5.03;;;20.80;34.30;;;;;;4932583;29;20051;-70
2022/03/17 09:29:44;;;;;;;10.60;4.45;;;20.90;33.80;;;;;;4919051;29;20044;-69
2022/03/17 09:32:11;;;;;;;15.98;4.82;;;21.10;34.20;;;;;;4911707;29;20048;-69
2022/03/17 09:34:38;;;;;;;19.20;4.07;;;21.40;33.10;;;;;;4912647;29;20052;-71
2022/03/17 09:37:07;;;;;;;11.73;4.13;;;21.40;33.10;;;;;;4926654;29;20060;-69
2022/03/17 09:39:44;;;;;;;12.45;4.22;;;21.70;32.60;;;;;;4917981;29;20591;-70
2022/03/17 09:42:11;;;;;;;10.63;4.10;;;21.80;32.60;;;;;;4925630;29;20048;-69
2022/03/17 09:44:38;;;;;;;16.52;4.22;;;21.80;33.10;;;;;;4924846;29;20095;-68
2022/03/17 09:47:09;;;;;;;9.30;3.78;;;21.80;32.10;;;;;;4917022;29;20071;-69
2022/03/17 09:49:37;;;;;;;21.95;4.43;;;21.50;32.50;;;;;;4918884;29;20047;-69
2022/03/17 09:52:12;;;;;;;11.45;3.80;;;20.90;33.00;;;;;;4933759;29;20048;-69
2022/03/17 09:54:40;;;;;;;16.58;4.30;;;20.30;33.00;;;;;;4916203;29;20059;-68
2022/03/17 09:57:08;;;;;;;13.52;4.15;;;19.50;33.90;;;;;;4930843;29;20044;-68
2022/03/17 09:59:36;;;;;;;21.23;4.07;;;18.50;35.40;;;;;;4933542;29;20052;-69
2022/03/17 10:02:04;;;;;;;22.38;5.20;;;18.10;35.90;;;;;;4933289;29;20086;-69
2022/03/17 10:04:32;;;;;;;14.15;4.00;;;17.60;36.90;;;;;;4914789;29;20048;-69
2022/03/17 10:07:01;;;;;;;12.15;3.78;;;17.10;37.20;;;;;;4899362;29;20052;-70
2022/03/17 10:09:30;;;;;;;11.60;4.28;;;17.40;37.80;;;;;;4927257;29;20432;-74
2022/03/17 10:12:03;;;;;;;15.70;5.32;;;18.20;37.10;;;;;;4906565;29;20050;-75
2022/03/17 10:14:39;;;;;;;11.20;4.80;;;19.20;35.80;;;;;;4915947;29;20583;-75
2022/03/17 10:17:10;;;;;;;15.48;4.50;;;19.50;35.60;;;;;;4921284;29;20142;-73
2022/03/17 10:19:38;;;;;;;14.20;4.47;;;19.90;35.10;;;;;;4914395;29;20066;-74
2022/03/17 10:22:12;;;;;;;13.45;4.05;;;20.60;34.20;;;;;;4914448;29;20054;-74
2022/03/17 10:24:52;;;;;;;7.13;4.00;;;21.30;33.40;;;;;;4913293;29;20612;-75
2022/03/17 10:27:39;;;;;;;15.38;4.45;;;21.30;33.80;;;;;;4921231;29;20048;-74
2022/03/17 10:30:08;;;;;;;14.23;4.53;;;21.70;33.90;;;;;;4927347;29;20149;-76
2022/03/17 10:32:36;;;;;;;8.93;4.93;;;21.80;33.40;;;;;;4914432;29;20084;-76
2022/03/17 10:35:08;;;;;;;9.15;4.88;;;21.80;32.80;;;;;;4913246;29;20060;-76
2022/03/17 10:37:37;;;;;;;7.85;4.57;;;21.50;33.70;;;;;;4913087;29;20052;-74
2022/03/17 10:40:11;;;;;;;14.63;4.57;;;21.40;33.20;;;;;;4912646;29;20078;-74
2022/03/17 10:42:39;;;;;;;14.70;4.75;;;20.80;33.70;;;;;;4912868;29;20063;-75
2022/03/17 10:45:09;;;;;;;19.23;6.18;;;20.80;34.20;;;;;;4913316;29;20048;-69
2022/03/17 10:47:39;;;;;;;17.48;4.88;;;20.60;34.80;;;;;;4914719;29;20445;-69
2022/03/17 10:50:18;;;;;;;15.45;5.05;;;20.50;34.80;;;;;;4916434;29;20111;-69
2022/03/17 10:52:55;;;;;;;11.32;5.32;;;20.40;34.80;;;;;;4919860;29;20107;-74
2022/03/17 10:55:27;;;;;;;18.08;5.60;;;20.20;34.90;;;;;;4921520;29;20048;-74
2022/03/17 10:57:58;;;;;;;11.00;4.63;;;19.70;36.00;;;;;;4907957;29;20048;-75
2022/03/17 11:00:28;;;;;;;20.10;4.57;;;19.50;36.40;;;;;;4922426;29;20146;-75
2022/03/17 11:02:58;;;;;;;12.23;4.68;;;19.90;35.90;;;;;;4922746;29;20087;-76
2022/03/17 11:05:27;;;;;;;8.85;4.25;;;19.80;35.80;;;;;;4917381;29;20067;-77
2022/03/17 11:07:56;;;;;;;17.55;5.05;;;20.40;35.60;;;;;;4935587;29;20043;-74
2022/03/17 11:10:26;;;;;;;9.85;4.85;;;20.90;34.60;;;;;;4917320;29;20052;-75
2022/03/17 11:12:54;;;;;;;9.27;3.97;;;21.00;34.40;;;;;;4916750;29;20405;-76
2022/03/17 11:15:30;;;;;;;15.52;6.97;;;20.20;34.90;;;;;;4914817;29;20052;-75
2022/03/17 11:18:05;;;;;;;10.93;4.45;;;19.90;36.30;;;;;;4922489;29;20051;-75
2022/03/17 11:20:33;;;;;;;23.73;12.23;;;19.50;35.70;;;;;;4919467;29;20173;-73
2022/03/17 11:23:15;;;;;;;15.68;5.22;;;19.30;37.50;;;;;;4903616;29;20088;-75
2022/03/17 11:25:53;;;;;;;14.82;4.10;;;19.30;36.50;;;;;;4914633;29;20068;-76
2022/03/17 11:28:33;;;;;;;8.68;3.35;;;19.80;36.30;;;;;;4922265;29;20416;-74
2022/03/17 11:31:02;;;;;;;9.60;3.95;;;20.30;35.50;;;;;;4930745;29;20071;-71
2022/03/17 11:33:32;;;;;;;7.80;3.78;;;20.30;35.90;;;;;;4917147;29;20056;-72
2022/03/17 11:36:03;;;;;;;12.00;3.45;;;20.70;34.70;;;;;;4922631;29;20563;-69
2022/03/17 11:38:36;;;;;;;8.63;4.30;;;21.00;34.60;;;;;;4925578;29;20067;-69
2022/03/17 11:41:14;;;;;;;7.32;3.78;;;21.80;34.30;;;;;;4917031;29;20055;-70
2022/03/17 11:44:00;;;;;;;4.65;3.05;;;22.40;33.20;;;;;;4914908;29;20080;-69
2022/03/17 11:46:44;;;;;;;10.18;3.25;;;22.60;33.50;;;;;;4915852;29;20048;-70
2022/03/17 11:49:25;;;;;;;5.65;3.55;;;22.70;33.10;;;;;;4916478;29;20067;-70
2022/03/17 11:52:06;;;;;;;9.18;3.80;;;23.00;33.00;;;;;;4916725;29;20134;-70
2022/03/17 11:54:33;;;;;;;5.57;3.28;;;22.70;32.50;;;;;;4899857;29;20059;-69
2022/03/17 11:57:05;;;;;;;8.05;3.50;;;22.80;32.70;;;;;;4926019;29;20063;-71
2022/03/17 11:59:52;;;;;;;12.77;3.97;;;22.60;32.70;;;;;;4901318;29;20801;-70
2022/03/17 12:02:21;;;;;;;9.30;3.45;;;23.00;32.70;;;;;;4909898;29;20119;-68
2022/03/17 12:04:50;;;;;;;6.32;3.63;;;22.80;32.30;;;;;;4914960;29;20052;-69
2022/03/17 12:07:21;;;;;;;7.45;3.20;;;22.30;32.70;;;;;;4916334;29;20048;-71
2022/03/17 12:09:49;;;;;;;6.68;2.95;;;21.70;33.10;;;;;;4915570;29;20079;-70
2022/03/17 12:12:25;;;;;;;9.20;3.00;;;21.10;33.90;;;;;;4916190;29;20170;-69
2022/03/17 12:14:55;;;;;;;3.50;2.58;;;20.70;34.70;;;;;;4914834;29;20460;-70
2022/03/17 12:17:23;;;;;;;9.68;3.03;;;20.30;35.00;;;;;;4901716;29;20429;-76
2022/03/17 12:20:07;;;;;;;7.95;2.90;;;20.50;34.90;;;;;;4902183;29;20060;-77
2022/03/17 12:22:39;;;;;;;13.38;3.33;;;21.70;34.10;;;;;;4924096;29;20056;-74
2022/03/17 12:25:18;;;;;;;10.10;3.53;;;22.50;34.40;;;;;;4920615;29;20048;-76
2022/03/17 12:27:55;;;;;;;6.40;3.20;;;23.50;32.30;;;;;;4929699;29;20355;-76
2022/03/17 12:30:25;;;;;;;4.00;2.58;;;24.30;31.70;;;;;;4922478;29;20130;-75
2022/03/17 12:32:55;;;;;;;6.85;3.38;;;24.70;31.50;;;;;;4925234;29;20416;-74
2022/03/17 12:35:26;;;;;;;10.43;4.13;;;24.50;30.80;;;;;;4922794;29;20052;-76
2022/03/17 12:38:00;;;;;;;7.57;3.58;;;23.80;31.60;;;;;;4917200;29;20052;-75
2022/03/17 12:40:28;;;;;;;3.00;2.33;;;22.90;32.10;;;;;;4906375;29;20044;-75
2022/03/17 12:42:57;;;;;;;5.32;2.60;;;22.30;31.80;;;;;;4910905;29;20131;-76
2022/03/17 12:45:26;;;;;;;7.25;2.75;;;21.10;32.70;;;;;;4914051;29;20043;-76
2022/03/17 12:47:57;;;;;;;6.22;2.80;;;20.60;33.70;;;;;;4916915;29;20060;-69
2022/03/17 12:50:31;;;;;;;7.03;3.28;;;20.40;34.70;;;;;;4912521;29;20466;-75
2022/03/17 12:53:00;;;;;;;8.93;3.10;;;19.80;34.70;;;;;;4899799;29;20103;-69
2022/03/17 12:55:29;;;;;;;11.30;2.78;;;19.50;35.30;;;;;;4914299;29;20183;-71
2022/03/17 12:58:00;;;;;;;7.00;3.72;;;19.80;35.00;;;;;;4915195;29;20063;-71
2022/03/17 13:00:28;;;;;;;9.10;3.70;;;20.30;34.70;;;;;;4913346;29;20052;-77
2022/03/17 13:02:59;;;;;;;6.30;3.13;;;21.10;33.90;;;;;;4915465;29;20054;-77
2022/03/17 13:08:17;;;;;;;6.13;2.92;;;22.60;32.90;;;;;;4896278;29;20299;-75
2022/03/17 13:16:17;;;;;;;12.60;3.25;;;23.40;30.90;;;;;;4915521;29;20051;-76
2022/03/17 13:18:47;;;;;;;8.10;3.05;;;23.20;31.20;;;;;;4915433;29;20580;-75
2022/03/17 13:21:16;;;;;;;8.82;3.28;;;23.30;31.80;;;;;;4908940;29;20053;-74